sensor_id;sensor_type;location;lat;lon;timestamp;P1;durP1;ratioP1;P2;durP2;ratioP2
46391;SDS011;32098;49.448;7.904;2024-01-10T00:01:14;16.40;;;9.07;;
46391;SDS011;32098;49.448;7.904;2024-01-10T00:03:41;20.07;;;9.90;;
46391;SDS011;32098;49.448;7.904;2024-01-10T00:06:07;17.90;;;8.83;;
46391;SDS011;32098;49.448;7.904;2024-01-10T00:08:34;19.60;;;9.63;;
46391;SDS011;32098;49.448;7.904;2024-01-10T00:11:01;18.00;;;9.57;;
46391;SDS011;32098;49.448;7.904;2024-01-10T00:13:28;18.73;;;10.33;;
46391;SDS011;32098;49.448;7.904;2024-01-10T00:15:55;25.37;;;11.50;;
46391;SDS011;32098;49.448;7.904;2024-01-10T00:18:22;21.03;;;10.83;;
46391;SDS011;32098;49.448;7.904;2024-01-10T00:20:48;19.10;;;9.77;;
46391;SDS011;32098;49.448;7.904;2024-01-10T00:23:15;19.83;;;10.47;;
46391;SDS011;32098;49.448;7.904;2024-01-10T00:25:42;20.97;;;11.47;;
46391;SDS011;32098;49.448;7.904;2024-01-10T00:28:08;20.97;;;11.73;;
46391;SDS011;32098;49.448;7.904;2024-01-10T00:30:35;20.40;;;11.13;;
46391;SDS011;32098;49.448;7.904;2024-01-10T00:33:01;21.67;;;11.87;;
46391;SDS011;32098;49.448;7.904;2024-01-10T00:35:28;19.37;;;9.80;;
46391;SDS011;32098;49.448;7.904;2024-01-10T00:37:55;16.43;;;7.80;;
46391;SDS011;32098;49.448;7.904;2024-01-10T00:40:22;17.97;;;10.13;;
46391;SDS011;32098;49.448;7.904;2024-01-10T00:42:49;17.53;;;9.17;;
46391;SDS011;32098;49.448;7.904;2024-01-10T00:45:16;18.10;;;9.07;;
46391;SDS011;32098;49.448;7.904;2024-01-10T00:47:43;20.27;;;10.17;;
46391;SDS011;32098;49.448;7.904;2024-01-10T00:50:09;15.33;;;8.77;;
46391;SDS011;32098;49.448;7.904;2024-01-10T00:52:36;16.67;;;8.63;;
46391;SDS011;32098;49.448;7.904;2024-01-10T00:55:03;18.47;;;8.57;;
46391;SDS011;32098;49.448;7.904;2024-01-10T00:57:29;14.90;;;7.80;;
46391;SDS011;32098;49.448;7.904;2024-01-10T00:59:56;17.03;;;8.80;;
46391;SDS011;32098;49.448;7.904;2024-01-10T01:02:23;18.17;;;8.70;;
46391;SDS011;32098;49.448;7.904;2024-01-10T01:04:49;18.03;;;8.37;;
46391;SDS011;32098;49.448;7.904;2024-01-10T01:07:16;16.30;;;7.73;;
46391;SDS011;32098;49.448;7.904;2024-01-10T01:09:43;19.73;;;8.93;;
46391;SDS011;32098;49.448;7.904;2024-01-10T01:12:09;16.30;;;8.83;;
46391;SDS011;32098;49.448;7.904;2024-01-10T01:14:36;17.07;;;8.80;;
46391;SDS011;32098;49.448;7.904;2024-01-10T01:17:03;17.33;;;8.37;;
46391;SDS011;32098;49.448;7.904;2024-01-10T01:19:29;19.87;;;8.67;;
46391;SDS011;32098;49.448;7.904;2024-01-10T01:21:56;17.87;;;8.03;;
46391;SDS011;32098;49.448;7.904;2024-01-10T01:24:23;13.30;;;7.73;;
46391;SDS011;32098;49.448;7.904;2024-01-10T01:26:49;19.53;;;9.10;;
46391;SDS011;32098;49.448;7.904;2024-01-10T01:29:16;20.03;;;9.70;;
46391;SDS011;32098;49.448;7.904;2024-01-10T01:31:43;17.20;;;8.87;;
46391;SDS011;32098;49.448;7.904;2024-01-10T01:34:09;16.23;;;8.10;;
46391;SDS011;32098;49.448;7.904;2024-01-10T01:36:36;16.93;;;8.93;;
46391;SDS011;32098;49.448;7.904;2024-01-10T01:39:03;16.47;;;8.70;;
46391;SDS011;32098;49.448;7.904;2024-01-10T01:41:30;15.30;;;8.23;;
46391;SDS011;32098;49.448;7.904;2024-01-10T01:43:56;15.37;;;8.63;;
46391;SDS011;32098;49.448;7.904;2024-01-10T01:46:23;20.43;;;10.60;;
46391;SDS011;32098;49.448;7.904;2024-01-10T01:48:50;26.33;;;14.73;;
46391;SDS011;32098;49.448;7.904;2024-01-10T01:51:17;27.40;;;14.83;;
46391;SDS011;32098;49.448;7.904;2024-01-10T01:53:46;20.63;;;10.30;;
46391;SDS011;32098;49.448;7.904;2024-01-10T01:56:14;19.53;;;9.50;;
46391;SDS011;32098;49.448;7.904;2024-01-10T01:58:42;23.10;;;10.33;;
46391;SDS011;32098;49.448;7.904;2024-01-10T02:01:10;16.20;;;9.23;;
46391;SDS011;32098;49.448;7.904;2024-01-10T02:03:38;18.30;;;9.20;;
46391;SDS011;32098;49.448;7.904;2024-01-10T02:06:05;18.90;;;9.73;;
46391;SDS011;32098;49.448;7.904;2024-01-10T02:08:34;17.50;;;9.00;;
46391;SDS011;32098;49.448;7.904;2024-01-10T02:11:02;19.00;;;10.33;;
46391;SDS011;32098;49.448;7.904;2024-01-10T02:13:29;21.27;;;9.37;;
46391;SDS011;32098;49.448;7.904;2024-01-10T02:15:58;17.57;;;9.47;;
46391;SDS011;32098;49.448;7.904;2024-01-10T02:18:25;19.43;;;9.07;;
46391;SDS011;32098;49.448;7.904;2024-01-10T02:20:52;20.17;;;9.57;;
46391;SDS011;32098;49.448;7.904;2024-01-10T02:23:19;17.93;;;9.93;;
46391;SDS011;32098;49.448;7.904;2024-01-10T02:25:46;20.63;;;9.50;;
46391;SDS011;32098;49.448;7.904;2024-01-10T02:28:12;18.70;;;10.10;;
46391;SDS011;32098;49.448;7.904;2024-01-10T02:30:39;19.47;;;9.10;;
46391;SDS011;32098;49.448;7.904;2024-01-10T02:33:06;19.50;;;10.13;;
46391;SDS011;32098;49.448;7.904;2024-01-10T02:35:32;18.33;;;9.47;;
46391;SDS011;32098;49.448;7.904;2024-01-10T02:37:59;19.10;;;9.77;;
46391;SDS011;32098;49.448;7.904;2024-01-10T02:40:26;17.80;;;10.30;;
46391;SDS011;32098;49.448;7.904;2024-01-10T02:42:53;18.27;;;9.93;;
46391;SDS011;32098;49.448;7.904;2024-01-10T02:45:20;19.17;;;9.07;;
46391;SDS011;32098;49.448;7.904;2024-01-10T02:47:46;18.63;;;9.50;;
46391;SDS011;32098;49.448;7.904;2024-01-10T02:50:13;18.27;;;9.63;;
46391;SDS011;32098;49.448;7.904;2024-01-10T02:52:40;20.40;;;10.07;;
46391;SDS011;32098;49.448;7.904;2024-01-10T02:55:07;18.43;;;9.60;;
46391;SDS011;32098;49.448;7.904;2024-01-10T02:57:33;18.63;;;9.43;;
46391;SDS011;32098;49.448;7.904;2024-01-10T03:00:00;20.53;;;10.20;;
46391;SDS011;32098;49.448;7.904;2024-01-10T03:02:28;20.40;;;10.40;;
46391;SDS011;32098;49.448;7.904;2024-01-10T03:04:54;19.20;;;9.97;;
46391;SDS011;32098;49.448;7.904;2024-01-10T03:07:21;18.97;;;10.33;;
46391;SDS011;32098;49.448;7.904;2024-01-10T03:09:51;19.03;;;9.67;;
46391;SDS011;32098;49.448;7.904;2024-01-10T03:12:17;19.67;;;10.40;;
46391;SDS011;32098;49.448;7.904;2024-01-10T03:14:44;19.13;;;9.80;;
46391;SDS011;32098;49.448;7.904;2024-01-10T03:17:10;18.90;;;9.70;;
46391;SDS011;32098;49.448;7.904;2024-01-10T03:19:37;22.43;;;10.47;;
46391;SDS011;32098;49.448;7.904;2024-01-10T03:22:09;19.50;;;10.17;;
46391;SDS011;32098;49.448;7.904;2024-01-10T03:24:37;18.83;;;10.17;;
46391;SDS011;32098;49.448;7.904;2024-01-10T03:27:04;20.30;;;10.43;;
46391;SDS011;32098;49.448;7.904;2024-01-10T03:29:31;18.87;;;10.03;;
46391;SDS011;32098;49.448;7.904;2024-01-10T03:31:57;21.13;;;10.70;;
46391;SDS011;32098;49.448;7.904;2024-01-10T03:34:24;21.77;;;10.20;;
46391;SDS011;32098;49.448;7.904;2024-01-10T03:36:51;20.73;;;10.13;;
46391;SDS011;32098;49.448;7.904;2024-01-10T03:39:18;19.43;;;9.83;;
46391;SDS011;32098;49.448;7.904;2024-01-10T03:41:44;19.93;;;10.27;;
46391;SDS011;32098;49.448;7.904;2024-01-10T03:44:11;21.47;;;10.27;;
46391;SDS011;32098;49.448;7.904;2024-01-10T03:46:37;20.00;;;10.37;;
46391;SDS011;32098;49.448;7.904;2024-01-10T03:49:04;18.03;;;10.40;;
46391;SDS011;32098;49.448;7.904;2024-01-10T03:51:31;21.50;;;10.30;;
46391;SDS011;32098;49.448;7.904;2024-01-10T03:53:57;20.07;;;10.50;;
46391;SDS011;32098;49.448;7.904;2024-01-10T03:56:24;19.53;;;10.13;;
46391;SDS011;32098;49.448;7.904;2024-01-10T03:58:51;18.37;;;9.93;;
46391;SDS011;32098;49.448;7.904;2024-01-10T04:01:21;20.77;;;10.30;;
46391;SDS011;32098;49.448;7.904;2024-01-10T04:03:49;20.63;;;11.17;;
46391;SDS011;32098;49.448;7.904;2024-01-10T04:06:16;19.63;;;9.83;;
46391;SDS011;32098;49.448;7.904;2024-01-10T04:08:43;21.03;;;9.60;;
46391;SDS011;32098;49.448;7.904;2024-01-10T04:11:09;22.03;;;11.03;;
46391;SDS011;32098;49.448;7.904;2024-01-10T04:13:36;21.10;;;10.60;;
46391;SDS011;32098;49.448;7.904;2024-01-10T04:16:03;19.87;;;9.93;;
46391;SDS011;32098;49.448;7.904;2024-01-10T04:18:30;20.23;;;9.80;;
46391;SDS011;32098;49.448;7.904;2024-01-10T04:20:57;21.00;;;11.00;;
46391;SDS011;32098;49.448;7.904;2024-01-10T04:23:23;19.00;;;10.03;;
46391;SDS011;32098;49.448;7.904;2024-01-10T04:25:50;17.43;;;10.13;;
46391;SDS011;32098;49.448;7.904;2024-01-10T04:28:17;21.33;;;11.50;;
46391;SDS011;32098;49.448;7.904;2024-01-10T04:30:45;21.80;;;10.90;;
46391;SDS011;32098;49.448;7.904;2024-01-10T04:33:12;22.00;;;10.83;;
46391;SDS011;32098;49.448;7.904;2024-01-10T04:35:38;17.53;;;9.90;;
46391;SDS011;32098;49.448;7.904;2024-01-10T04:38:05;21.20;;;10.17;;
46391;SDS011;32098;49.448;7.904;2024-01-10T04:40:32;18.03;;;10.20;;
46391;SDS011;32098;49.448;7.904;2024-01-10T04:42:58;20.47;;;10.67;;
46391;SDS011;32098;49.448;7.904;2024-01-10T04:45:25;23.03;;;11.50;;
46391;SDS011;32098;49.448;7.904;2024-01-10T04:47:51;19.27;;;10.10;;
46391;SDS011;32098;49.448;7.904;2024-01-10T04:50:18;19.50;;;10.30;;
46391;SDS011;32098;49.448;7.904;2024-01-10T04:52:45;25.67;;;11.60;;
46391;SDS011;32098;49.448;7.904;2024-01-10T04:55:12;25.00;;;11.70;;
46391;SDS011;32098;49.448;7.904;2024-01-10T04:57:38;20.80;;;10.70;;
46391;SDS011;32098;49.448;7.904;2024-01-10T05:00:05;20.63;;;10.33;;
46391;SDS011;32098;49.448;7.904;2024-01-10T05:02:34;19.33;;;10.60;;
46391;SDS011;32098;49.448;7.904;2024-01-10T05:05:00;22.97;;;10.97;;
46391;SDS011;32098;49.448;7.904;2024-01-10T05:07:27;20.53;;;11.03;;
46391;SDS011;32098;49.448;7.904;2024-01-10T05:09:54;23.43;;;11.10;;
46391;SDS011;32098;49.448;7.904;2024-01-10T05:12:21;20.60;;;11.83;;
46391;SDS011;32098;49.448;7.904;2024-01-10T05:14:47;23.37;;;11.47;;
46391;SDS011;32098;49.448;7.904;2024-01-10T05:17:14;23.60;;;11.93;;
46391;SDS011;32098;49.448;7.904;2024-01-10T05:19:41;19.90;;;11.63;;
46391;SDS011;32098;49.448;7.904;2024-01-10T05:22:07;23.17;;;11.83;;
46391;SDS011;32098;49.448;7.904;2024-01-10T05:24:34;21.87;;;10.97;;
46391;SDS011;32098;49.448;7.904;2024-01-10T05:27:02;18.00;;;11.17;;
46391;SDS011;32098;49.448;7.904;2024-01-10T05:29:29;22.33;;;11.33;;
46391;SDS011;32098;49.448;7.904;2024-01-10T05:31:55;18.50;;;10.27;;
46391;SDS011;32098;49.448;7.904;2024-01-10T05:34:22;19.83;;;11.30;;
46391;SDS011;32098;49.448;7.904;2024-01-10T05:36:49;22.27;;;11.43;;
46391;SDS011;32098;49.448;7.904;2024-01-10T05:39:16;25.77;;;11.97;;
46391;SDS011;32098;49.448;7.904;2024-01-10T05:45:01;19.77;;;10.80;;
46391;SDS011;32098;49.448;7.904;2024-01-10T05:47:28;20.80;;;11.13;;
46391;SDS011;32098;49.448;7.904;2024-01-10T05:49:55;23.67;;;10.90;;
46391;SDS011;32098;49.448;7.904;2024-01-10T05:52:22;23.73;;;12.00;;
46391;SDS011;32098;49.448;7.904;2024-01-10T05:54:48;24.00;;;11.13;;
46391;SDS011;32098;49.448;7.904;2024-01-10T05:57:15;19.53;;;11.17;;
46391;SDS011;32098;49.448;7.904;2024-01-10T05:59:42;22.47;;;10.27;;
46391;SDS011;32098;49.448;7.904;2024-01-10T06:02:08;22.17;;;11.27;;
46391;SDS011;32098;49.448;7.904;2024-01-10T06:04:35;23.63;;;11.23;;
46391;SDS011;32098;49.448;7.904;2024-01-10T06:07:01;18.83;;;10.20;;
46391;SDS011;32098;49.448;7.904;2024-01-10T06:09:30;24.57;;;11.67;;
46391;SDS011;32098;49.448;7.904;2024-01-10T06:11:56;21.70;;;11.17;;
46391;SDS011;32098;49.448;7.904;2024-01-10T06:14:23;20.97;;;10.63;;
46391;SDS011;32098;49.448;7.904;2024-01-10T06:16:50;22.70;;;11.67;;
46391;SDS011;32098;49.448;7.904;2024-01-10T06:19:19;18.77;;;10.83;;
46391;SDS011;32098;49.448;7.904;2024-01-10T06:21:46;18.33;;;9.63;;
46391;SDS011;32098;49.448;7.904;2024-01-10T06:24:12;21.27;;;10.53;;
46391;SDS011;32098;49.448;7.904;2024-01-10T06:26:39;25.27;;;11.47;;
46391;SDS011;32098;49.448;7.904;2024-01-10T06:29:06;19.33;;;11.13;;
46391;SDS011;32098;49.448;7.904;2024-01-10T06:31:32;21.27;;;10.63;;
46391;SDS011;32098;49.448;7.904;2024-01-10T06:34:00;20.20;;;11.20;;
46391;SDS011;32098;49.448;7.904;2024-01-10T06:36:26;24.40;;;12.13;;
46391;SDS011;32098;49.448;7.904;2024-01-10T06:38:53;20.77;;;11.43;;
46391;SDS011;32098;49.448;7.904;2024-01-10T06:41:23;20.73;;;11.80;;
46391;SDS011;32098;49.448;7.904;2024-01-10T06:43:51;20.90;;;11.93;;
46391;SDS011;32098;49.448;7.904;2024-01-10T06:46:19;21.10;;;11.60;;
46391;SDS011;32098;49.448;7.904;2024-01-10T06:48:46;22.60;;;11.83;;
46391;SDS011;32098;49.448;7.904;2024-01-10T06:51:13;21.37;;;12.63;;
46391;SDS011;32098;49.448;7.904;2024-01-10T06:53:40;24.67;;;13.53;;
46391;SDS011;32098;49.448;7.904;2024-01-10T06:56:07;26.07;;;13.17;;
46391;SDS011;32098;49.448;7.904;2024-01-10T06:58:35;29.73;;;13.70;;
46391;SDS011;32098;49.448;7.904;2024-01-10T07:01:02;26.13;;;13.50;;
46391;SDS011;32098;49.448;7.904;2024-01-10T07:03:32;26.60;;;13.60;;
46391;SDS011;32098;49.448;7.904;2024-01-10T07:06:01;23.40;;;12.93;;
46391;SDS011;32098;49.448;7.904;2024-01-10T07:08:28;22.50;;;11.17;;
46391;SDS011;32098;49.448;7.904;2024-01-10T07:10:54;21.23;;;11.03;;
46391;SDS011;32098;49.448;7.904;2024-01-10T07:13:22;23.60;;;12.20;;
46391;SDS011;32098;49.448;7.904;2024-01-10T07:15:49;49.77;;;26.60;;
46391;SDS011;32098;49.448;7.904;2024-01-10T07:18:19;27.80;;;15.23;;
46391;SDS011;32098;49.448;7.904;2024-01-10T07:20:46;23.90;;;12.43;;
46391;SDS011;32098;49.448;7.904;2024-01-10T07:23:12;22.00;;;12.43;;
46391;SDS011;32098;49.448;7.904;2024-01-10T07:25:39;25.27;;;14.13;;
46391;SDS011;32098;49.448;7.904;2024-01-10T07:28:05;24.20;;;12.37;;
46391;SDS011;32098;49.448;7.904;2024-01-10T07:30:32;22.97;;;12.27;;
46391;SDS011;32098;49.448;7.904;2024-01-10T07:32:59;20.37;;;10.40;;
46391;SDS011;32098;49.448;7.904;2024-01-10T07:35:26;29.43;;;15.23;;
46391;SDS011;32098;49.448;7.904;2024-01-10T07:37:54;20.60;;;11.33;;
46391;SDS011;32098;49.448;7.904;2024-01-10T07:40:21;21.03;;;11.50;;
46391;SDS011;32098;49.448;7.904;2024-01-10T07:42:49;24.43;;;11.70;;
46391;SDS011;32098;49.448;7.904;2024-01-10T07:45:15;21.20;;;10.67;;
46391;SDS011;32098;49.448;7.904;2024-01-10T07:47:42;20.23;;;10.67;;
46391;SDS011;32098;49.448;7.904;2024-01-10T07:50:09;23.60;;;11.20;;
46391;SDS011;32098;49.448;7.904;2024-01-10T07:52:41;22.40;;;11.77;;
46391;SDS011;32098;49.448;7.904;2024-01-10T07:55:09;21.10;;;10.77;;
46391;SDS011;32098;49.448;7.904;2024-01-10T07:57:36;20.90;;;10.53;;
46391;SDS011;32098;49.448;7.904;2024-01-10T08:00:05;24.00;;;11.20;;
46391;SDS011;32098;49.448;7.904;2024-01-10T08:02:40;23.37;;;12.67;;
46391;SDS011;32098;49.448;7.904;2024-01-10T08:05:06;29.10;;;14.93;;
46391;SDS011;32098;49.448;7.904;2024-01-10T08:07:36;56.13;;;27.97;;
46391;SDS011;32098;49.448;7.904;2024-01-10T08:10:04;56.23;;;27.43;;
46391;SDS011;32098;49.448;7.904;2024-01-10T08:12:32;64.40;;;30.07;;
46391;SDS011;32098;49.448;7.904;2024-01-10T08:14:59;79.63;;;35.67;;
46391;SDS011;32098;49.448;7.904;2024-01-10T08:17:25;54.97;;;26.03;;
46391;SDS011;32098;49.448;7.904;2024-01-10T08:19:52;44.17;;;21.80;;
46391;SDS011;32098;49.448;7.904;2024-01-10T08:22:19;45.77;;;23.17;;
46391;SDS011;32098;49.448;7.904;2024-01-10T08:24:46;41.87;;;20.00;;
46391;SDS011;32098;49.448;7.904;2024-01-10T08:27:13;45.93;;;23.53;;
46391;SDS011;32098;49.448;7.904;2024-01-10T08:29:39;38.70;;;18.60;;
46391;SDS011;32098;49.448;7.904;2024-01-10T08:32:06;35.40;;;17.03;;
46391;SDS011;32098;49.448;7.904;2024-01-10T08:34:32;31.73;;;15.07;;
46391;SDS011;32098;49.448;7.904;2024-01-10T08:36:59;30.63;;;13.83;;
46391;SDS011;32098;49.448;7.904;2024-01-10T08:39:26;24.93;;;13.00;;
46391;SDS011;32098;49.448;7.904;2024-01-10T08:41:54;24.40;;;12.83;;
46391;SDS011;32098;49.448;7.904;2024-01-10T08:44:21;24.27;;;12.00;;
46391;SDS011;32098;49.448;7.904;2024-01-10T08:46:49;23.50;;;12.50;;
46391;SDS011;32098;49.448;7.904;2024-01-10T08:49:17;23.90;;;12.63;;
46391;SDS011;32098;49.448;7.904;2024-01-10T08:51:44;22.63;;;12.53;;
46391;SDS011;32098;49.448;7.904;2024-01-10T08:54:12;24.33;;;11.77;;
46391;SDS011;32098;49.448;7.904;2024-01-10T08:56:43;25.00;;;11.97;;
46391;SDS011;32098;49.448;7.904;2024-01-10T08:59:12;26.23;;;12.43;;
46391;SDS011;32098;49.448;7.904;2024-01-10T09:01:39;23.43;;;11.93;;
46391;SDS011;32098;49.448;7.904;2024-01-10T09:04:06;24.80;;;12.60;;
46391;SDS011;32098;49.448;7.904;2024-01-10T09:06:33;23.57;;;12.90;;
46391;SDS011;32098;49.448;7.904;2024-01-10T09:09:02;22.70;;;12.43;;
46391;SDS011;32098;49.448;7.904;2024-01-10T09:11:29;27.10;;;12.77;;
46391;SDS011;32098;49.448;7.904;2024-01-10T09:13:56;26.07;;;11.97;;
46391;SDS011;32098;49.448;7.904;2024-01-10T09:16:23;24.30;;;12.83;;
46391;SDS011;32098;49.448;7.904;2024-01-10T09:18:49;22.70;;;11.77;;
46391;SDS011;32098;49.448;7.904;2024-01-10T09:21:20;22.07;;;11.83;;
46391;SDS011;32098;49.448;7.904;2024-01-10T09:23:47;23.83;;;12.47;;
46391;SDS011;32098;49.448;7.904;2024-01-10T09:26:17;21.97;;;11.70;;
46391;SDS011;32098;49.448;7.904;2024-01-10T09:28:45;20.87;;;10.97;;
46391;SDS011;32098;49.448;7.904;2024-01-10T09:31:11;21.73;;;11.40;;
46391;SDS011;32098;49.448;7.904;2024-01-10T09:33:38;20.30;;;10.97;;
46391;SDS011;32098;49.448;7.904;2024-01-10T09:36:05;20.60;;;10.57;;
46391;SDS011;32098;49.448;7.904;2024-01-10T09:38:36;19.37;;;10.47;;
46391;SDS011;32098;49.448;7.904;2024-01-10T09:41:05;20.97;;;11.37;;
46391;SDS011;32098;49.448;7.904;2024-01-10T09:43:33;22.77;;;11.60;;
46391;SDS011;32098;49.448;7.904;2024-01-10T09:46:01;21.27;;;10.60;;
46391;SDS011;32098;49.448;7.904;2024-01-10T09:48:31;21.57;;;11.27;;
46391;SDS011;32098;49.448;7.904;2024-01-10T09:50:59;23.97;;;12.77;;
46391;SDS011;32098;49.448;7.904;2024-01-10T09:53:26;25.80;;;13.20;;
46391;SDS011;32098;49.448;7.904;2024-01-10T09:55:54;29.37;;;13.30;;
46391;SDS011;32098;49.448;7.904;2024-01-10T09:58:23;26.70;;;13.33;;
46391;SDS011;32098;49.448;7.904;2024-01-10T10:00:51;30.63;;;14.63;;
46391;SDS011;32098;49.448;7.904;2024-01-10T10:03:18;23.83;;;12.43;;
46391;SDS011;32098;49.448;7.904;2024-01-10T10:05:45;16.47;;;11.13;;
46391;SDS011;32098;49.448;7.904;2024-01-10T10:08:13;17.93;;;11.27;;
46391;SDS011;32098;49.448;7.904;2024-01-10T10:10:49;25.63;;;13.47;;
46391;SDS011;32098;49.448;7.904;2024-01-10T10:13:26;24.30;;;12.77;;
46391;SDS011;32098;49.448;7.904;2024-01-10T10:16:01;22.00;;;11.60;;
46391;SDS011;32098;49.448;7.904;2024-01-10T10:18:29;24.30;;;12.40;;
46391;SDS011;32098;49.448;7.904;2024-01-10T10:23:57;21.03;;;12.10;;
46391;SDS011;32098;49.448;7.904;2024-01-10T10:26:26;23.17;;;11.97;;
46391;SDS011;32098;49.448;7.904;2024-01-10T10:28:54;22.37;;;13.17;;
46391;SDS011;32098;49.448;7.904;2024-01-10T10:31:22;31.57;;;15.37;;
46391;SDS011;32098;49.448;7.904;2024-01-10T10:33:50;20.50;;;11.47;;
46391;SDS011;32098;49.448;7.904;2024-01-10T10:36:20;23.40;;;13.20;;
46391;SDS011;32098;49.448;7.904;2024-01-10T10:38:47;29.27;;;14.60;;
46391;SDS011;32098;49.448;7.904;2024-01-10T10:41:15;21.53;;;12.00;;
46391;SDS011;32098;49.448;7.904;2024-01-10T10:43:42;22.97;;;13.50;;
46391;SDS011;32098;49.448;7.904;2024-01-10T10:46:09;25.97;;;14.60;;
46391;SDS011;32098;49.448;7.904;2024-01-10T10:48:39;23.70;;;12.57;;
46391;SDS011;32098;49.448;7.904;2024-01-10T10:51:10;21.93;;;12.53;;
46391;SDS011;32098;49.448;7.904;2024-01-10T10:53:38;43.70;;;19.50;;
46391;SDS011;32098;49.448;7.904;2024-01-10T10:56:07;40.73;;;19.10;;
46391;SDS011;32098;49.448;7.904;2024-01-10T10:58:35;23.73;;;12.87;;
46391;SDS011;32098;49.448;7.904;2024-01-10T11:01:04;20.40;;;12.13;;
46391;SDS011;32098;49.448;7.904;2024-01-10T11:03:33;22.33;;;11.73;;
46391;SDS011;32098;49.448;7.904;2024-01-10T11:06:02;21.40;;;12.50;;
46391;SDS011;32098;49.448;7.904;2024-01-10T11:08:37;21.53;;;12.03;;
46391;SDS011;32098;49.448;7.904;2024-01-10T11:11:07;21.70;;;12.13;;
46391;SDS011;32098;49.448;7.904;2024-01-10T11:22:15;21.77;;;11.80;;
46391;SDS011;32098;49.448;7.904;2024-01-10T11:24:55;21.17;;;11.17;;
46391;SDS011;32098;49.448;7.904;2024-01-10T11:27:26;19.20;;;11.67;;
46391;SDS011;32098;49.448;7.904;2024-01-10T11:29:53;20.93;;;11.43;;
46391;SDS011;32098;49.448;7.904;2024-01-10T11:32:22;20.53;;;11.40;;
46391;SDS011;32098;49.448;7.904;2024-01-10T11:34:57;24.40;;;11.97;;
46391;SDS011;32098;49.448;7.904;2024-01-10T11:37:28;18.87;;;11.13;;
46391;SDS011;32098;49.448;7.904;2024-01-10T11:40:07;21.60;;;12.43;;
46391;SDS011;32098;49.448;7.904;2024-01-10T11:42:45;22.40;;;12.13;;
46391;SDS011;32098;49.448;7.904;2024-01-10T11:45:34;22.03;;;12.70;;
46391;SDS011;32098;49.448;7.904;2024-01-10T11:48:02;22.20;;;12.20;;
46391;SDS011;32098;49.448;7.904;2024-01-10T11:50:29;20.83;;;11.80;;
46391;SDS011;32098;49.448;7.904;2024-01-10T11:52:59;19.00;;;11.80;;
46391;SDS011;32098;49.448;7.904;2024-01-10T11:58:18;20.10;;;11.57;;
46391;SDS011;32098;49.448;7.904;2024-01-10T12:00:45;19.53;;;11.70;;
46391;SDS011;32098;49.448;7.904;2024-01-10T12:03:12;24.50;;;12.57;;
46391;SDS011;32098;49.448;7.904;2024-01-10T12:05:40;20.33;;;11.83;;
46391;SDS011;32098;49.448;7.904;2024-01-10T12:08:08;20.80;;;11.67;;
46391;SDS011;32098;49.448;7.904;2024-01-10T12:10:45;21.13;;;12.67;;
46391;SDS011;32098;49.448;7.904;2024-01-10T12:13:11;21.90;;;11.93;;
46391;SDS011;32098;49.448;7.904;2024-01-10T12:15:38;21.33;;;11.70;;
46391;SDS011;32098;49.448;7.904;2024-01-10T12:18:05;23.07;;;12.33;;
46391;SDS011;32098;49.448;7.904;2024-01-10T12:20:32;21.17;;;11.67;;
46391;SDS011;32098;49.448;7.904;2024-01-10T12:22:58;23.23;;;12.77;;
46391;SDS011;32098;49.448;7.904;2024-01-10T12:25:25;22.87;;;12.03;;
46391;SDS011;32098;49.448;7.904;2024-01-10T12:27:52;22.30;;;12.50;;
46391;SDS011;32098;49.448;7.904;2024-01-10T12:30:19;22.80;;;11.77;;
46391;SDS011;32098;49.448;7.904;2024-01-10T12:32:50;20.57;;;12.17;;
46391;SDS011;32098;49.448;7.904;2024-01-10T12:35:17;20.33;;;11.90;;
46391;SDS011;32098;49.448;7.904;2024-01-10T12:37:55;20.47;;;12.43;;
46391;SDS011;32098;49.448;7.904;2024-01-10T12:40:22;21.23;;;12.53;;
46391;SDS011;32098;49.448;7.904;2024-01-10T12:42:49;21.07;;;12.80;;
46391;SDS011;32098;49.448;7.904;2024-01-10T12:45:28;23.97;;;12.90;;
46391;SDS011;32098;49.448;7.904;2024-01-10T12:47:55;21.00;;;12.40;;
46391;SDS011;32098;49.448;7.904;2024-01-10T12:50:22;18.40;;;11.47;;
46391;SDS011;32098;49.448;7.904;2024-01-10T12:52:49;24.63;;;12.70;;
46391;SDS011;32098;49.448;7.904;2024-01-10T12:55:15;21.40;;;11.50;;
46391;SDS011;32098;49.448;7.904;2024-01-10T12:57:43;23.13;;;12.50;;
46391;SDS011;32098;49.448;7.904;2024-01-10T13:00:10;20.13;;;12.20;;
46391;SDS011;32098;49.448;7.904;2024-01-10T13:02:38;23.07;;;12.47;;
46391;SDS011;32098;49.448;7.904;2024-01-10T13:05:06;20.13;;;12.20;;
46391;SDS011;32098;49.448;7.904;2024-01-10T13:07:36;23.73;;;12.40;;
46391;SDS011;32098;49.448;7.904;2024-01-10T13:10:03;20.13;;;12.33;;
46391;SDS011;32098;49.448;7.904;2024-01-10T13:12:30;22.33;;;12.17;;
46391;SDS011;32098;49.448;7.904;2024-01-10T13:14:56;22.17;;;12.30;;
46391;SDS011;32098;49.448;7.904;2024-01-10T13:17:28;22.43;;;12.03;;
46391;SDS011;32098;49.448;7.904;2024-01-10T13:19:58;23.70;;;12.90;;
46391;SDS011;32098;49.448;7.904;2024-01-10T13:22:24;22.10;;;13.40;;
46391;SDS011;32098;49.448;7.904;2024-01-10T13:24:51;21.90;;;13.27;;
46391;SDS011;32098;49.448;7.904;2024-01-10T13:27:19;21.67;;;12.27;;
46391;SDS011;32098;49.448;7.904;2024-01-10T13:29:47;19.77;;;12.17;;
46391;SDS011;32098;49.448;7.904;2024-01-10T13:32:14;22.13;;;12.90;;
46391;SDS011;32098;49.448;7.904;2024-01-10T13:34:42;20.67;;;11.97;;
46391;SDS011;32098;49.448;7.904;2024-01-10T13:37:09;22.37;;;13.00;;
46391;SDS011;32098;49.448;7.904;2024-01-10T13:39:40;21.57;;;12.57;;
46391;SDS011;32098;49.448;7.904;2024-01-10T13:42:08;21.07;;;12.77;;
46391;SDS011;32098;49.448;7.904;2024-01-10T13:44:36;24.27;;;13.13;;
46391;SDS011;32098;49.448;7.904;2024-01-10T13:47:03;22.33;;;12.87;;
46391;SDS011;32098;49.448;7.904;2024-01-10T13:49:30;26.50;;;13.87;;
46391;SDS011;32098;49.448;7.904;2024-01-10T13:51:57;20.47;;;11.83;;
46391;SDS011;32098;49.448;7.904;2024-01-10T13:54:24;22.77;;;12.17;;
46391;SDS011;32098;49.448;7.904;2024-01-10T13:56:51;23.93;;;13.93;;
46391;SDS011;32098;49.448;7.904;2024-01-10T13:59:18;24.90;;;13.23;;
46391;SDS011;32098;49.448;7.904;2024-01-10T14:01:44;25.77;;;13.03;;
46391;SDS011;32098;49.448;7.904;2024-01-10T14:04:11;21.47;;;13.17;;
46391;SDS011;32098;49.448;7.904;2024-01-10T14:06:38;22.50;;;12.97;;
46391;SDS011;32098;49.448;7.904;2024-01-10T14:09:05;21.27;;;12.87;;
46391;SDS011;32098;49.448;7.904;2024-01-10T14:11:33;24.43;;;13.07;;
46391;SDS011;32098;49.448;7.904;2024-01-10T14:14:01;24.20;;;13.40;;
46391;SDS011;32098;49.448;7.904;2024-01-10T14:16:28;24.40;;;13.70;;
46391;SDS011;32098;49.448;7.904;2024-01-10T14:18:55;24.43;;;12.93;;
46391;SDS011;32098;49.448;7.904;2024-01-10T14:21:23;24.23;;;12.77;;
46391;SDS011;32098;49.448;7.904;2024-01-10T14:23:49;25.40;;;13.57;;
46391;SDS011;32098;49.448;7.904;2024-01-10T14:26:16;26.30;;;13.90;;
46391;SDS011;32098;49.448;7.904;2024-01-10T14:28:43;24.43;;;13.40;;
46391;SDS011;32098;49.448;7.904;2024-01-10T14:31:10;25.80;;;13.90;;
46391;SDS011;32098;49.448;7.904;2024-01-10T14:33:55;25.57;;;14.27;;
46391;SDS011;32098;49.448;7.904;2024-01-10T14:36:23;25.00;;;14.17;;
46391;SDS011;32098;49.448;7.904;2024-01-10T14:38:50;24.30;;;13.53;;
46391;SDS011;32098;49.448;7.904;2024-01-10T14:41:17;25.37;;;13.37;;
46391;SDS011;32098;49.448;7.904;2024-01-10T14:43:43;24.40;;;13.63;;